Farlington, KS

11:30 PM CDT on September 15, 2014 (GMT -0500)
Atkinson Municipal | Change Station
CLOSE
Current Station
Airport
Location: Pittsburg,
Elevation: 951 ft
Nearby Weather Stations

Elev 951 ft 37.45 °N, 94.73 °W | Updated 15 minutes ago

Overcast
Overcast
68 °F
Feels Like 68 °F
N
6
Wind Variable Wind from ENE

Today
High -- | Low -- °F
--% Chance of Precip.
Yesterday
High -- | Low -- °F
Precip. -- in
7:01 AM 7:27 PM
Waning Gibbous, 49% visible
Pressure 30.19 in
Visibility 10.0 miles
Clouds Overcast 4400 ft
Dew Point 64 °F
Humidity 86%
Rainfall 0.00 in
Snow Depth Not available.
UV 0 out of 12
Pollen 4.60 out of 12
Air Quality Not available.
Flu Activity Not available.
METAR KPTS 160415Z AUTO 06005KT 10SM -RA OVC044 20/18 A3019 RMK AO2 T02030179

More Conditions Fewer Conditions

Pressure 30.19 in
Visibility 10.0 miles
Clouds Overcast 4400 ft
Dew Point 64 °F
Humidity 86%
Rainfall 0.00 in
Snow Depth Not available.
UV 0 out of 12
Pollen 4.60 out of 12
Air Quality Not available.
Flu Activity Not available.
METAR KPTS 160415Z AUTO 06005KT 10SM -RA OVC044 20/18 A3019 RMK AO2 T02030179

More Conditions Fewer Conditions

10-Day Weather Forecast

Almanac

Astronomy

Sep. 15, 2014 Rise Set
Actual Time 7:01 AM CDT 7:27 PM CDT
Civil Twilight 6:35 AM CDT 7:53 PM CDT
Nautical Twilight 6:04 AM CDT 8:24 PM CDT
Astronomical Twilight 5:32 AM CDT 8:55 PM CDT
Moon No Moon Rise 1:55 PM CDT (9/15)
Length of Visible Light 13h 18m
Length of Day
12h 25m
Tomorrow will be 2m 23s shorter.
Waning Gibbous, 49% of the Moon is Illuminated
Sep 16
Waning Gibbous
Sep 24
New
Oct 1
First Quarter
Oct 8
Full
Oct 15
Last Quarter

Today's Extremes

State Highs State Lows

Community

WunderPhotos

Upload Photos

1,753,702 photos uploaded!

Nearby

Snow Depth

Station Depth Elevation
No new snow has been reported.

Earthquake Activity

City Distance Mag. Time & Date
No recent earthquake activity has been reported nearby.
Minimum magnitude displayed is 2.5.

Coastal Water Temperatures

Place Temperature
No Stations Reporting

Nearby Weather Stations